Terminal Aerodrome Forecast
Issued by NWS Pittsburgh, PA

Home | Current Version | Previous Version | Text Only | Print | Product List | Glossary On
Versions: 1 2 3 4 5 6 7 8 9 10 11 12 13 14 15 16 17 18 19 20 21 22 23 24 25 26 27 28 29 30 31 32 33 34 35 36
000
FTUS41 KPBZ 242011 AAB
TAFPIT
TAF AMD
KPIT 242011Z 2420/2524 24008KT P6SM -SHRA VCTS BKN040CB
      TEMPO 2420/2421 VRB25G40KT 1SM -TSRA BKN035CB
     FM250300 21003KT P6SM BKN080
     FM251600 26010KT P6SM VCTS BKN040CB=

USA.gov is the U.S. government's official web portal to all federal, state and local government web resources and services.